Time;durP1;ratioP1;P1;durP2;ratioP2;P2;SDS_P1;SDS_P2;PMS_P1;PMS_P2;Temp;Humidity;BMP_temperature;BMP_pressure;BME280_temperature;BME280_humidity;BME280_pressure;Samples;Min_cycle;Max_cycle;Signal;HPM_P1;HPM_P2
2022/06/07 00:01:48;;;;;;;4.50;4.08;;;;;;;24.39;52.23;99936.83;1778725;79;21505;-58
2022/06/07 00:04:15;;;;;;;7.08;3.92;;;;;;;24.38;52.23;99927.06;1783326;80;22103;-59
2022/06/07 00:06:42;;;;;;;4.90;4.10;;;;;;;24.38;52.24;99930.29;1747380;80;21019;-59
2022/06/07 00:09:08;;;;;;;4.78;4.37;;;;;;;24.37;52.28;99924.59;1749993;80;21092;-58
2022/06/07 00:11:35;;;;;;;6.20;4.00;;;;;;;24.36;52.26;99927.02;1764135;80;21025;-59
2022/06/07 00:14:02;;;;;;;5.08;4.00;;;;;;;24.34;52.30;99931.36;1770225;80;21076;-59
2022/06/07 00:16:30;;;;;;;6.55;4.35;;;;;;;24.32;52.33;99930.25;1768748;79;21146;-59
2022/06/07 00:18:56;;;;;;;7.03;4.42;;;;;;;24.33;52.37;99924.28;1762686;80;21546;-58
2022/06/07 00:21:24;;;;;;;4.67;4.28;;;;;;;24.30;52.45;99927.52;1747395;79;21498;-59
2022/06/07 00:23:50;;;;;;;4.90;3.90;;;;;;;24.29;52.45;99927.22;1756631;79;21029;-59
2022/06/07 00:26:16;;;;;;;5.05;4.12;;;;;;;24.28;52.51;99922.86;1767533;80;21085;-59
2022/06/07 00:28:43;;;;;;;6.72;4.58;;;;;;;24.27;52.58;99922.59;1776941;79;21143;-58
2022/06/07 00:31:09;;;;;;;4.45;4.05;;;;;;;24.26;52.62;99920.94;1782092;78;20990;-59
2022/06/07 00:33:36;;;;;;;5.08;3.87;;;;;;;24.24;52.64;99917.14;1749835;80;21074;-59
2022/06/07 00:36:04;;;;;;;9.58;4.67;;;;;;;24.24;52.68;99920.37;1725503;80;21064;-59
2022/06/07 00:38:32;;;;;;;4.42;4.03;;;;;;;24.23;52.74;99922.27;1772854;80;20991;-59
2022/06/07 00:40:59;;;;;;;5.08;3.95;;;;;;;24.21;52.77;99927.14;1783242;80;21146;-59
2022/06/07 00:43:26;;;;;;;4.67;4.03;;;;;;;24.21;52.79;99922.25;1769114;80;21034;-58
2022/06/07 00:45:52;;;;;;;6.37;4.00;;;;;;;24.19;52.79;99922.50;1762094;80;21034;-58
2022/06/07 00:48:20;;;;;;;4.35;3.95;;;;;;;24.18;52.85;99922.20;1756698;80;21018;-58
2022/06/07 00:50:57;;;;;;;6.60;4.33;;;;;;;24.18;52.85;99919.48;1704559;82;21038;-59
2022/06/07 00:53:34;;;;;;;5.95;4.25;;;;;;;24.17;52.84;99921.12;1725393;81;21156;-59
2022/06/07 00:56:05;;;;;;;4.83;4.33;;;;;;;24.14;52.85;99918.36;1761077;80;21084;-59
2022/06/07 00:58:33;;;;;;;4.50;4.10;;;;;;;24.13;52.87;99924.33;1759500;80;21093;-60
2022/06/07 01:01:01;;;;;;;5.58;4.17;;;;;;;24.12;52.90;99920.50;1757342;80;20998;-59
2022/06/07 01:03:28;;;;;;;6.17;4.30;;;;;;;24.10;52.96;99924.83;1777375;80;21073;-60
2022/06/07 01:10:43;;;;;;;5.75;4.30;;;;;;;24.08;53.00;99924.26;1778466;80;21139;-58
2022/06/07 01:11:14;;;;;;;5.05;4.00;;;;;;;24.08;53.03;99919.38;1765551;80;21045;-59
2022/06/07 01:13:40;;;;;;;4.95;4.20;;;;;;;24.06;53.09;99922.34;1764892;81;21501;-58
2022/06/07 01:16:12;;;;;;;4.22;3.83;;;;;;;24.04;53.12;99923.13;1764197;81;21012;-59
2022/06/07 01:18:40;;;;;;;4.70;3.75;;;;;;;24.03;53.16;99920.14;1768903;80;21211;-58
2022/06/07 01:21:36;;;;;;;5.78;3.95;;;;;;;24.01;53.19;99917.37;1747291;82;21034;-58
2022/06/07 01:24:05;;;;;;;4.80;4.10;;;;;;;24.00;53.21;99915.21;1704765;80;21046;-61
2022/06/07 01:26:35;;;;;;;5.17;4.20;;;;;;;23.98;53.25;99917.36;1754445;80;21012;-59
2022/06/07 01:29:03;;;;;;;5.00;3.95;;;;;;;23.96;53.28;99918.16;1758209;80;21050;-59
2022/06/07 01:31:31;;;;;;;4.70;3.65;;;;;;;23.95;53.27;99917.85;1758249;80;21200;-59
2022/06/07 01:33:59;;;;;;;4.58;4.00;;;;;;;23.95;53.29;99920.56;1765807;80;21033;-59
2022/06/07 01:36:26;;;;;;;4.70;4.30;;;;;;;23.94;53.36;99918.94;1756984;80;21100;-59
2022/06/07 01:41:56;;;;;;;4.35;3.95;;;;;;;23.92;53.41;99919.19;1751566;80;21549;-59
2022/06/07 01:44:37;;;;;;;3.83;3.52;;;;;;;23.90;53.46;99921.33;1764929;80;21145;-60
2022/06/07 01:47:05;;;;;;;4.28;3.87;;;;;;;23.89;53.52;99918.86;1823088;78;22964;-59
2022/06/07 01:49:34;;;;;;;6.08;3.90;;;;;;;23.86;53.59;99916.13;1824656;78;21032;-59
2022/06/07 01:52:01;;;;;;;6.47;4.20;;;;;;;23.85;53.65;99912.30;1785832;80;21068;-58
2022/06/07 01:54:30;;;;;;;4.58;3.77;;;;;;;23.85;53.73;99916.38;1771051;80;21002;-59
2022/06/07 01:56:57;;;;;;;4.30;3.67;;;;;;;23.84;53.75;99915.56;1764773;78;22764;-60
2022/06/07 01:59:24;;;;;;;4.25;3.80;;;;;;;23.83;53.81;99915.27;1766533;79;21481;-59
2022/06/07 02:01:51;;;;;;;4.17;3.77;;;;;;;23.83;53.84;99922.05;1770355;79;21044;-59
2022/06/07 02:04:18;;;;;;;4.50;4.05;;;;;;;23.82;53.88;99915.00;1768042;80;21056;-59
2022/06/07 02:06:44;;;;;;;4.95;4.10;;;;;;;23.82;53.89;99911.47;1757977;79;21037;-59
2022/06/07 02:09:14;;;;;;;5.25;3.87;;;;;;;23.82;53.91;99914.19;1761268;79;21159;-59
2022/06/07 02:11:41;;;;;;;4.10;3.70;;;;;;;23.82;53.95;99912.83;1769461;80;20997;-58
2022/06/07 02:14:09;;;;;;;7.15;4.62;;;;;;;23.82;53.97;99914.19;1767021;80;21089;-59
2022/06/07 02:16:36;;;;;;;7.97;4.60;;;;;;;23.81;54.01;99907.91;1745760;81;21046;-59
2022/06/07 02:19:03;;;;;;;4.95;4.40;;;;;;;23.80;54.02;99914.43;1751137;79;21014;-59
2022/06/07 02:21:33;;;;;;;5.45;4.22;;;;;;;23.80;54.04;99913.07;1745317;82;21243;-59
2022/06/07 02:24:00;;;;;;;4.22;3.55;;;;;;;23.80;54.06;99915.78;1745815;82;21502;-59
2022/06/07 02:26:31;;;;;;;4.65;4.00;;;;;;;23.80;54.12;99912.23;1760872;80;21085;-59
2022/06/07 02:29:08;;;;;;;5.10;4.30;;;;;;;23.79;54.14;99922.81;1764176;80;21462;-60
2022/06/07 02:31:37;;;;;;;4.42;3.95;;;;;;;23.79;54.21;99925.52;1751430;79;21050;-58
2022/06/07 02:34:04;;;;;;;5.17;3.75;;;;;;;23.77;54.27;99918.14;1753943;80;21057;-58
2022/06/07 02:36:31;;;;;;;5.28;4.03;;;;;;;23.78;54.31;99923.84;1767138;79;21074;-58
2022/06/07 02:38:59;;;;;;;4.55;4.15;;;;;;;23.77;54.36;99924.92;1769711;79;21017;-59
2022/06/07 02:41:26;;;;;;;7.33;4.53;;;;;;;23.76;54.40;99921.40;1764179;80;21528;-58
2022/06/07 02:43:55;;;;;;;5.60;4.20;;;;;;;23.76;54.41;99920.05;1764770;80;21072;-59
2022/06/07 02:46:22;;;;;;;4.47;3.92;;;;;;;23.76;54.47;99925.47;1747605;80;22059;-59
2022/06/07 02:48:50;;;;;;;5.53;4.22;;;;;;;23.75;54.49;99921.10;1746430;79;21518;-59
2022/06/07 02:51:17;;;;;;;7.30;4.80;;;;;;;23.75;54.51;99922.45;1738637;80;21474;-59
2022/06/07 02:53:44;;;;;;;6.37;4.33;;;;;;;23.75;54.53;99924.63;1737281;80;21538;-59
2022/06/07 02:56:11;;;;;;;4.50;4.10;;;;;;;23.75;54.59;99922.45;1766579;79;21037;-58
2022/06/07 02:58:38;;;;;;;5.40;4.30;;;;;;;23.75;54.62;99923.27;1745714;82;21140;-59
2022/06/07 03:01:06;;;;;;;4.90;4.35;;;;;;;23.75;54.66;99920.56;1750400;80;21100;-59
2022/06/07 03:03:35;;;;;;;5.47;4.17;;;;;;;23.75;54.70;99921.91;1757931;79;21109;-59
2022/06/07 03:06:04;;;;;;;5.15;4.28;;;;;;;23.75;54.76;99918.39;1758288;79;21054;-58
2022/06/07 03:08:30;;;;;;;5.28;4.55;;;;;;;23.75;54.81;99924.63;1763574;79;21702;-60
2022/06/07 03:10:59;;;;;;;5.25;4.58;;;;;;;23.76;54.88;99922.75;1746317;80;21345;-59
2022/06/07 03:13:26;;;;;;;6.83;4.33;;;;;;;23.75;54.92;99913.78;1764803;79;21064;-59
2022/06/07 03:15:53;;;;;;;5.35;4.12;;;;;;;23.76;54.95;99920.05;1767336;79;21455;-59
2022/06/07 03:18:21;;;;;;;7.17;4.33;;;;;;;23.76;54.98;99914.62;1776942;80;21533;-59
2022/06/07 03:20:49;;;;;;;6.15;4.67;;;;;;;23.77;54.97;99918.95;1778311;80;21548;-59
2022/06/07 03:23:16;;;;;;;7.10;4.72;;;;;;;23.79;55.01;99913.31;1748039;80;22149;-59
2022/06/07 03:25:44;;;;;;;6.78;4.33;;;;;;;23.79;55.06;99913.31;1777651;80;21036;-59
2022/06/07 03:28:11;;;;;;;5.28;4.50;;;;;;;23.80;55.08;99910.88;1775538;79;21026;-58
2022/06/07 03:30:39;;;;;;;5.22;4.60;;;;;;;23.81;55.11;99919.31;1765780;80;21004;-59
2022/06/07 03:33:06;;;;;;;9.38;4.58;;;;;;;23.81;55.07;99914.70;1771298;80;21533;-58
2022/06/07 03:35:33;;;;;;;6.08;4.58;;;;;;;23.83;55.10;99919.33;1765520;80;21703;-58
2022/06/07 03:38:01;;;;;;;7.35;5.42;;;;;;;23.84;55.14;99919.63;1747342;82;21038;-59
2022/06/07 03:40:45;;;;;;;8.63;5.35;;;;;;;23.84;55.18;99912.84;1761868;80;21052;-59
2022/06/07 03:43:11;;;;;;;10.63;4.72;;;;;;;23.85;55.22;99913.12;1764010;81;21013;-59
2022/06/07 03:45:39;;;;;;;12.80;4.90;;;;;;;23.86;55.25;99916.13;1764514;81;21037;-59
2022/06/07 03:48:08;;;;;;;11.80;5.15;;;;;;;23.87;55.25;99912.88;1764215;80;21831;-59
2022/06/07 03:50:36;;;;;;;10.08;4.60;;;;;;;23.89;55.26;99909.37;1756736;79;20989;-59
2022/06/07 03:53:05;;;;;;;6.85;4.72;;;;;;;23.89;55.29;99914.28;1757675;80;21041;-59
2022/06/07 03:55:33;;;;;;;8.65;5.22;;;;;;;23.92;55.38;99914.30;1764001;80;21533;-58
2022/06/07 03:58:04;;;;;;;6.87;5.05;;;;;;;23.93;55.42;99914.57;1768758;79;21018;-59
2022/06/07 04:00:31;;;;;;;5.75;4.70;;;;;;;23.94;55.47;99909.45;1767715;80;21537;-59
2022/06/07 04:02:59;;;;;;;7.10;5.00;;;;;;;23.96;55.50;99912.72;1763916;79;21000;-59
2022/06/07 04:05:27;;;;;;;9.45;5.67;;;;;;;23.98;55.51;99913.83;1764313;79;21029;-59
2022/06/07 04:08:12;;;;;;;5.47;4.97;;;;;;;23.99;55.57;99914.95;1768687;79;21080;-59
2022/06/07 04:10:52;;;;;;;7.28;4.65;;;;;;;24.01;55.63;99909.24;1770411;80;21036;-60
2022/06/07 04:13:24;;;;;;;10.38;5.00;;;;;;;24.01;55.62;99906.02;1766338;80;21145;-59
2022/06/07 04:15:53;;;;;;;6.83;5.45;;;;;;;24.03;55.66;99917.44;1770004;80;21017;-58
2022/06/07 04:18:19;;;;;;;7.95;4.87;;;;;;;24.05;55.70;99913.09;1770065;80;21029;-59
2022/06/07 04:20:47;;;;;;;7.45;5.47;;;;;;;24.07;55.69;99917.75;1769758;81;21142;-59
2022/06/07 04:23:17;;;;;;;5.83;5.05;;;;;;;24.08;55.67;99916.12;1773295;80;21018;-59
2022/06/07 04:25:44;;;;;;;6.83;5.05;;;;;;;24.11;55.50;99904.77;1773260;80;21509;-59
2022/06/07 04:28:13;;;;;;;6.15;5.20;;;;;;;24.13;55.38;99909.95;1759875;80;21493;-59
2022/06/07 04:30:47;;;;;;;7.22;5.10;;;;;;;24.16;55.43;99909.42;1773071;79;21041;-59
2022/06/07 04:33:16;;;;;;;9.40;5.62;;;;;;;24.19;55.43;99913.55;1726836;81;21005;-60
2022/06/07 04:35:44;;;;;;;8.73;5.90;;;;;;;24.21;55.42;99918.18;1764070;80;21050;-60
2022/06/07 04:38:12;;;;;;;8.00;5.42;;;;;;;24.22;55.31;99903.52;1765178;79;21139;-58
2022/06/07 04:40:41;;;;;;;8.23;4.80;;;;;;;24.25;55.18;99911.16;1770793;80;21088;-59
2022/06/07 04:43:11;;;;;;;5.95;4.85;;;;;;;24.27;54.55;99906.30;1762166;80;21058;-59
2022/06/07 04:45:39;;;;;;;6.20;4.12;;;;;;;24.28;53.97;99903.34;1762214;80;21072;-59
2022/06/07 04:48:10;;;;;;;4.70;3.77;;;;;;;24.30;53.44;99909.33;1769951;80;21056;-59
2022/06/07 04:50:39;;;;;;;8.05;4.45;;;;;;;24.33;53.06;99906.63;1763352;80;21144;-59
2022/06/07 04:53:06;;;;;;;5.05;4.35;;;;;;;24.34;52.81;99906.38;1763521;80;21080;-59
2022/06/07 04:55:34;;;;;;;5.47;4.08;;;;;;;24.38;52.88;99914.84;1771728;80;21010;-60
2022/06/07 04:58:01;;;;;;;4.85;4.45;;;;;;;24.40;52.75;99901.02;1774328;80;20974;-59
2022/06/07 05:00:29;;;;;;;4.40;3.80;;;;;;;24.43;52.55;99907.28;1786317;78;21564;-60
2022/06/07 05:03:00;;;;;;;4.50;4.10;;;;;;;24.45;52.43;99911.91;1801750;78;21186;-60
2022/06/07 05:05:29;;;;;;;6.10;4.33;;;;;;;24.47;52.34;99915.19;1791481;80;21009;-59
2022/06/07 05:07:58;;;;;;;5.05;3.87;;;;;;;24.49;52.29;99915.23;1790010;79;21379;-59
2022/06/07 05:10:25;;;;;;;4.50;4.10;;;;;;;24.51;52.23;99916.34;1795035;78;21538;-60
2022/06/07 05:12:53;;;;;;;4.60;4.20;;;;;;;24.53;52.27;99920.47;1798421;79;21044;-60
2022/06/07 05:15:22;;;;;;;6.08;4.50;;;;;;;24.55;52.12;99921.58;1765906;80;21532;-59
2022/06/07 05:17:53;;;;;;;7.53;4.53;;;;;;;24.58;51.92;99921.05;1777035;80;21449;-59
2022/06/07 05:20:21;;;;;;;4.90;4.30;;;;;;;24.60;51.78;99922.15;1789346;79;21036;-59
2022/06/07 05:22:49;;;;;;;4.87;4.40;;;;;;;24.61;51.84;99925.98;1806590;78;21010;-59
2022/06/07 05:25:18;;;;;;;4.53;4.12;;;;;;;24.63;51.82;99928.44;1811628;78;21017;-58
2022/06/07 05:27:48;;;;;;;6.72;4.22;;;;;;;24.65;51.83;99926.28;1760434;80;21108;-58
2022/06/07 05:30:16;;;;;;;5.22;3.90;;;;;;;24.67;51.81;99928.20;1768762;80;21103;-60
2022/06/07 05:32:44;;;;;;;6.08;3.83;;;;;;;24.69;51.87;99927.41;1774946;80;21069;-59
2022/06/07 05:35:14;;;;;;;5.05;4.33;;;;;;;24.71;51.77;99927.97;1768065;80;21038;-58
2022/06/07 05:37:43;;;;;;;4.78;4.12;;;;;;;24.73;51.79;99923.09;1766915;80;21028;-59
2022/06/07 05:40:17;;;;;;;4.70;4.10;;;;;;;24.76;52.01;99923.11;1764552;79;21778;-58
2022/06/07 05:42:44;;;;;;;3.90;3.52;;;;;;;24.79;51.99;99928.04;1767599;80;21036;-59
2022/06/07 05:45:12;;;;;;;4.42;3.40;;;;;;;24.81;52.40;99928.05;1772284;79;21540;-58
2022/06/07 05:47:41;;;;;;;8.28;3.77;;;;;;;24.83;52.73;99929.97;1772197;79;21022;-59
2022/06/07 05:50:09;;;;;;;9.80;4.47;;;;;;;24.85;52.86;99921.57;1788923;79;22094;-58
2022/06/07 05:52:40;;;;;;;6.50;3.85;;;;;;;24.88;52.92;99920.52;1794372;79;21484;-59
2022/06/07 05:55:09;;;;;;;5.60;4.25;;;;;;;24.91;53.12;99919.17;1778630;80;21026;-58
2022/06/07 05:57:36;;;;;;;7.55;4.10;;;;;;;24.96;53.16;99926.57;1773833;79;21017;-59
2022/06/07 06:00:06;;;;;;;5.40;3.90;;;;;;;24.99;52.84;99920.59;1776528;79;20998;-60
2022/06/07 06:02:34;;;;;;;6.10;4.17;;;;;;;25.02;52.42;99926.89;1773476;80;21041;-59
2022/06/07 06:05:01;;;;;;;8.33;4.05;;;;;;;25.06;52.48;99927.45;1777772;80;21142;-59
2022/06/07 06:07:30;;;;;;;6.03;4.65;;;;;;;25.09;52.41;99922.88;1778025;80;21127;-59
2022/06/07 06:12:43;;;;;;;6.15;4.00;;;;;;;25.15;52.44;99923.73;1780928;80;21045;-58
2022/06/07 06:15:12;;;;;;;5.50;4.00;;;;;;;25.19;51.81;99920.77;1779115;78;21008;-60
2022/06/07 06:17:40;;;;;;;3.80;3.50;;;;;;;25.22;51.81;99920.78;1781061;79;21004;-59
2022/06/07 06:20:10;;;;;;;4.10;3.67;;;;;;;25.23;51.25;99921.91;1788427;80;21823;-60
2022/06/07 06:22:38;;;;;;;3.77;2.95;;;;;;;25.26;50.67;99920.56;1784043;80;21055;-58
2022/06/07 06:25:08;;;;;;;5.97;3.45;;;;;;;25.28;50.86;99916.52;1783671;80;21032;-59
2022/06/07 06:27:35;;;;;;;4.58;2.92;;;;;;;25.31;50.59;99915.98;1784090;80;21000;-60
2022/06/07 06:30:08;;;;;;;4.65;2.95;;;;;;;25.32;49.84;99910.00;1769703;80;21230;-59
2022/06/07 06:32:37;;;;;;;3.40;3.10;;;;;;;25.35;49.28;99915.47;1772339;79;21017;-60
2022/06/07 06:35:05;;;;;;;5.85;3.37;;;;;;;25.37;49.08;99914.67;1771557;80;21033;-59
2022/06/07 06:37:32;;;;;;;5.85;3.27;;;;;;;25.38;48.72;99912.21;1765417;80;21264;-58
2022/06/07 06:40:01;;;;;;;5.22;2.72;;;;;;;25.40;48.41;99910.05;1782435;79;20985;-60
2022/06/07 06:42:29;;;;;;;3.77;3.00;;;;;;;25.41;48.52;99904.91;1762360;81;21133;-59
2022/06/07 06:45:04;;;;;;;3.12;2.70;;;;;;;25.42;48.46;99903.28;1751102;81;21082;-58
2022/06/07 06:47:31;;;;;;;3.20;2.90;;;;;;;25.44;47.96;99904.36;1745788;80;21560;-59
2022/06/07 06:49:58;;;;;;;3.65;3.27;;;;;;;25.46;47.54;99903.03;1736344;81;21058;-58
2022/06/07 06:52:24;;;;;;;4.65;3.08;;;;;;;25.47;47.54;99898.41;1768247;81;21057;-60
2022/06/07 06:54:51;;;;;;;6.28;3.00;;;;;;;25.48;47.65;99900.06;1771724;81;21139;-59
2022/06/07 06:57:23;;;;;;;5.20;3.40;;;;;;;25.50;48.23;99893.81;1749579;80;21554;-60
2022/06/07 06:59:51;;;;;;;7.15;3.42;;;;;;;25.52;48.81;99888.93;1773493;80;21057;-58
2022/06/07 07:02:20;;;;;;;3.55;3.22;;;;;;;25.55;49.14;99894.37;1755812;80;21467;-58
2022/06/07 07:05:00;;;;;;;4.67;3.27;;;;;;;25.58;48.87;99892.50;1754359;80;21014;-58
2022/06/07 07:07:29;;;;;;;3.33;2.80;;;;;;;25.59;48.62;99889.48;1791040;80;21179;-58
2022/06/07 07:09:56;;;;;;;4.67;3.30;;;;;;;25.61;48.84;99890.59;1785244;79;20989;-59
2022/06/07 07:12:22;;;;;;;3.85;3.37;;;;;;;25.63;48.92;99890.62;1781934;80;21033;-59
2022/06/07 07:14:51;;;;;;;8.50;2.77;;;;;;;25.65;48.92;99887.62;1790980;78;21079;-58
2022/06/07 07:17:20;;;;;;;5.90;2.80;;;;;;;25.67;48.63;99893.09;1756315;80;21103;-59
2022/06/07 07:19:49;;;;;;;3.80;3.40;;;;;;;25.69;48.63;99891.44;1755858;81;21204;-58
2022/06/07 07:22:18;;;;;;;4.45;3.22;;;;;;;25.70;49.53;99891.73;1755842;81;20974;-59
2022/06/07 07:24:45;;;;;;;3.58;3.25;;;;;;;25.71;50.11;99887.94;1756126;81;21002;-59
2022/06/07 07:27:14;;;;;;;6.28;3.87;;;;;;;25.72;50.29;99882.77;1731256;80;21519;-59
2022/06/07 07:29:43;;;;;;;8.93;3.87;;;;;;;25.74;50.26;99894.20;1783122;80;21091;-59
2022/06/07 07:32:11;;;;;;;6.78;3.83;;;;;;;25.75;50.59;99893.65;1784866;80;21221;-58
2022/06/07 07:34:42;;;;;;;9.08;4.28;;;;;;;25.77;50.34;99892.84;1784221;80;21041;-59
2022/06/07 07:37:10;;;;;;;6.28;3.62;;;;;;;25.79;50.29;99892.06;1783043;80;21113;-58
2022/06/07 07:39:38;;;;;;;5.05;3.33;;;;;;;25.80;50.39;99888.24;1766668;80;21484;-58
2022/06/07 07:42:07;;;;;;;5.42;3.10;;;;;;;25.82;50.29;99890.96;1785570;80;21220;-59
2022/06/07 07:44:38;;;;;;;6.50;3.58;;;;;;;25.84;50.13;99891.52;1757862;80;21123;-59
2022/06/07 07:47:05;;;;;;;7.30;3.55;;;;;;;25.88;50.09;99884.48;1776001;80;21565;-59
2022/06/07 07:49:34;;;;;;;4.95;3.42;;;;;;;25.90;50.48;99888.27;1777118;80;21030;-58
2022/06/07 07:52:01;;;;;;;4.20;3.30;;;;;;;25.93;50.37;99889.70;1777818;80;21557;-59
2022/06/07 07:54:30;;;;;;;3.50;3.05;;;;;;;25.95;49.93;99892.42;1791134;80;22063;-59
2022/06/07 07:56:59;;;;;;;5.50;3.15;;;;;;;25.97;49.56;99887.52;1800567;79;21135;-59
2022/06/07 07:59:26;;;;;;;5.65;3.00;;;;;;;25.98;48.58;99891.90;1788556;79;20996;-58
2022/06/07 08:01:55;;;;;;;4.33;2.87;;;;;;;26.01;48.46;99890.53;1791314;79;21042;-58
2022/06/07 08:04:21;;;;;;;5.62;3.08;;;;;;;26.03;49.28;99895.98;1778518;79;21044;-58
2022/06/07 08:06:49;;;;;;;5.58;3.08;;;;;;;26.06;49.70;99885.13;1789173;79;21052;-58
2022/06/07 08:09:16;;;;;;;4.67;2.77;;;;;;;26.08;49.86;99887.84;1747516;82;21142;-58
2022/06/07 08:11:43;;;;;;;4.90;3.08;;;;;;;26.10;49.96;99890.30;1747410;82;21030;-59
2022/06/07 08:14:14;;;;;;;2.92;2.62;;;;;;;26.11;49.86;99881.58;1747481;82;21026;-58
2022/06/07 08:16:40;;;;;;;4.85;2.87;;;;;;;26.13;49.83;99889.75;1757741;80;21103;-58
2022/06/07 08:19:08;;;;;;;3.58;2.40;;;;;;;26.14;49.94;99892.76;1796010;79;21660;-59
2022/06/07 08:21:35;;;;;;;3.85;3.10;;;;;;;26.15;49.99;99884.85;1777387;78;21136;-59
2022/06/07 08:24:02;;;;;;;3.37;2.83;;;;;;;26.15;50.05;99884.85;1748363;80;20991;-58
2022/06/07 08:26:30;;;;;;;5.17;2.55;;;;;;;26.17;50.08;99884.59;1766487;79;21096;-59
2022/06/07 08:28:57;;;;;;;2.90;2.60;;;;;;;26.18;50.04;99884.88;1787550;79;21063;-59
2022/06/07 08:31:27;;;;;;;3.20;2.87;;;;;;;26.19;49.95;99882.41;1796120;79;20984;-58
2022/06/07 08:39:25;;;;;;;4.10;2.47;;;;;;;26.21;49.84;99885.16;1772804;80;21019;-59
2022/06/07 08:42:01;;;;;;;3.50;2.80;;;;;;;26.22;49.58;99888.70;1772867;80;21598;-58
2022/06/07 08:45:02;;;;;;;3.30;2.65;;;;;;;26.23;49.59;99880.79;1773223;81;20989;-58
2022/06/07 08:47:48;;;;;;;4.12;2.70;;;;;;;26.23;49.35;99883.52;1773237;81;21100;-59
2022/06/07 08:50:37;;;;;;;3.10;2.70;;;;;;;26.23;48.32;99875.34;1743528;81;21583;-58
2022/06/07 08:53:33;;;;;;;3.90;2.65;;;;;;;26.25;48.36;99889.50;1776941;78;21032;-59
2022/06/07 08:56:02;;;;;;;5.08;3.00;;;;;;;26.25;48.64;99879.98;1787015;80;21026;-58
2022/06/07 08:58:41;;;;;;;3.47;2.92;;;;;;;26.26;48.87;99874.82;1783689;80;21126;-58
2022/06/07 09:01:25;;;;;;;4.62;3.47;;;;;;;26.27;48.96;99877.28;1763306;80;21191;-59
2022/06/07 09:04:14;;;;;;;5.35;3.05;;;;;;;26.29;48.96;99881.10;1770395;80;21049;-58
2022/06/07 09:06:47;;;;;;;6.95;3.12;;;;;;;26.29;47.66;99877.83;1766460;80;21025;-59
2022/06/07 09:09:16;;;;;;;4.12;2.60;;;;;;;26.30;48.18;99873.19;1778367;78;21093;-58
2022/06/07 09:12:14;;;;;;;4.75;3.02;;;;;;;26.33;48.48;99873.19;1777300;79;21023;-59
2022/06/07 09:14:50;;;;;;;6.22;2.70;;;;;;;26.34;48.45;99868.84;1773079;80;21097;-59
2022/06/07 09:17:35;;;;;;;4.22;2.72;;;;;;;26.36;48.42;99867.21;1769000;80;21013;-59
2022/06/07 09:20:05;;;;;;;3.00;2.70;;;;;;;26.37;48.25;99866.95;1773157;79;21002;-57
2022/06/07 09:22:55;;;;;;;6.37;2.60;;;;;;;26.38;48.20;99859.03;1773787;80;21072;-60
2022/06/07 09:25:34;;;;;;;5.20;3.22;;;;;;;26.41;48.23;99863.95;1773549;80;21039;-58
2022/06/07 09:28:03;;;;;;;4.15;2.95;;;;;;;26.42;48.19;99861.48;1749392;81;21537;-59
2022/06/07 09:30:43;;;;;;;3.08;2.80;;;;;;;26.45;48.26;99860.96;1779837;79;21020;-59
2022/06/07 09:33:27;;;;;;;5.10;2.72;;;;;;;26.47;48.30;99857.42;1765900;80;21044;-59
2022/06/07 09:36:11;;;;;;;5.42;2.85;;;;;;;26.49;48.11;99855.24;1763886;79;20998;-59
2022/06/07 09:38:41;;;;;;;4.50;2.87;;;;;;;26.53;48.07;99846.54;1771943;80;21978;-57
2022/06/07 09:41:36;;;;;;;3.37;2.92;;;;;;;26.57;48.10;99853.89;1780341;80;21138;-58
2022/06/07 09:44:15;;;;;;;3.47;2.75;;;;;;;26.58;48.03;99850.61;1782640;80;21071;-59
2022/06/07 09:46:43;;;;;;;4.50;3.02;;;;;;;26.61;48.08;99844.11;1741419;81;21005;-60
2022/06/07 09:49:34;;;;;;;3.37;2.50;;;;;;;26.64;48.06;99844.12;1770025;80;21115;-58
2022/06/07 09:52:24;;;;;;;3.12;2.83;;;;;;;26.67;48.23;99847.10;1780714;80;21021;-60
2022/06/07 09:54:58;;;;;;;4.17;2.62;;;;;;;26.71;48.19;99844.66;1803248;79;21148;-59
2022/06/07 09:57:41;;;;;;;3.50;2.80;;;;;;;26.73;48.19;99838.38;1798912;78;21525;-59
2022/06/07 10:00:24;;;;;;;2.60;2.40;;;;;;;26.76;47.98;99836.48;1770398;80;21080;-58
2022/06/07 10:03:26;;;;;;;4.22;2.87;;;;;;;26.79;47.84;99830.50;1775385;80;21010;-59
2022/06/07 10:06:17;;;;;;;3.15;2.72;;;;;;;26.82;47.79;99829.12;1774352;80;21552;-59
2022/06/07 10:09:33;;;;;;;6.30;2.85;;;;;;;26.84;47.79;99827.75;1741449;82;21083;-59
2022/06/07 10:12:42;;;;;;;2.87;2.60;;;;;;;26.87;47.79;99821.77;1712939;82;21018;-59
2022/06/07 10:15:17;;;;;;;4.85;2.60;;;;;;;26.88;47.75;99820.66;1775897;80;21078;-59
2022/06/07 10:18:00;;;;;;;4.22;2.52;;;;;;;26.92;47.63;99826.94;1776758;80;21038;-60
2022/06/07 10:20:39;;;;;;;;;;;;;;;26.93;47.51;99816.32;1774738;80;21076;-60
2022/06/07 10:23:11;;;;;;;3.22;2.27;;;;;;;26.95;47.42;99820.95;1775808;80;21142;-64
2022/06/07 10:25:49;;;;;;;5.58;2.65;;;;;;;26.97;47.35;99818.77;1766293;80;21058;-59
2022/06/07 10:28:43;;;;;;;2.75;2.50;;;;;;;27.01;47.23;99819.84;1771390;80;21041;-61
2022/06/07 10:31:42;;;;;;;4.45;2.45;;;;;;;27.05;47.21;99819.56;1768925;80;21510;-59
2022/06/07 10:34:36;;;;;;;3.30;3.00;;;;;;;27.09;47.17;99817.11;1756615;80;21046;-59
2022/06/07 10:37:38;;;;;;;3.42;2.65;;;;;;;27.13;47.07;99817.63;1772004;79;21210;-59
2022/06/07 10:40:24;;;;;;;2.95;2.55;;;;;;;27.16;46.97;99811.63;1767620;80;21065;-60
2022/06/07 10:43:06;;;;;;;2.77;2.52;;;;;;;27.19;46.93;99815.70;1772645;80;21057;-59
2022/06/07 10:45:36;;;;;;;3.42;2.52;;;;;;;27.23;46.85;99808.60;1770811;80;21037;-59
2022/06/07 10:48:14;;;;;;;2.37;2.17;;;;;;;27.26;46.79;99812.19;1773190;80;21092;-59
2022/06/07 10:50:58;;;;;;;3.47;2.62;;;;;;;27.30;46.75;99809.17;1768618;80;21107;-59
2022/06/07 10:53:32;;;;;;;2.87;2.67;;;;;;;27.34;46.69;99800.70;1764401;80;21034;-59
2022/06/07 10:56:06;;;;;;;4.22;2.65;;;;;;;27.38;46.61;99791.41;1767294;79;21017;-59
2022/06/07 10:58:45;;;;;;;3.80;2.92;;;;;;;27.42;46.58;99786.48;1763931;80;21572;-59
2022/06/07 11:01:29;;;;;;;5.20;2.50;;;;;;;27.46;46.49;99790.27;1769885;80;21446;-60
2022/06/07 11:10:12;;;;;;;3.08;2.77;;;;;;;27.59;46.25;99777.14;1760993;80;21054;-60
2022/06/07 11:15:07;;;;;;;3.65;2.90;;;;;;;27.66;46.21;99776.27;1862192;75;23165;-60
2022/06/07 11:17:57;;;;;;;3.08;2.77;;;;;;;27.62;46.24;99778.77;1830912;77;21016;-60
2022/06/07 11:20:27;;;;;;;2.98;2.75;;;;;;;27.62;46.17;99770.58;1852300;77;21151;-59
2022/06/07 11:23:03;;;;;;;2.92;2.52;;;;;;;27.64;46.17;99768.91;1851555;77;20950;-59
2022/06/07 11:25:41;;;;;;;3.00;2.80;;;;;;;27.64;46.17;99761.56;1783803;77;21528;-59
2022/06/07 11:28:17;;;;;;;3.30;3.00;;;;;;;27.66;46.19;99762.63;1854229;77;20996;-59
2022/06/07 11:30:49;;;;;;;3.22;2.80;;;;;;;27.66;46.22;99762.63;1842198;77;21000;-59
2022/06/07 11:33:33;;;;;;;3.00;2.80;;;;;;;27.67;46.18;99758.81;1854173;77;21107;-59
2022/06/07 11:36:27;;;;;;;2.90;2.70;;;;;;;27.67;46.21;99758.00;1856991;77;20972;-59
2022/06/07 11:38:59;;;;;;;3.00;2.70;;;;;;;27.67;46.22;99757.45;1855897;77;21469;-58
2022/06/07 11:41:41;;;;;;;3.35;2.70;;;;;;;27.65;46.22;99756.36;1787400;78;20962;-63
2022/06/07 11:44:29;;;;;;;2.83;2.60;;;;;;;27.66;46.24;99751.70;1807534;79;20993;-59
2022/06/07 11:47:01;;;;;;;3.30;3.00;;;;;;;27.67;46.21;99748.45;1764345;79;21046;-59
2022/06/07 11:49:31;;;;;;;4.03;2.83;;;;;;;27.70;46.16;99749.23;1775650;79;21491;-60
2022/06/07 11:52:10;;;;;;;3.27;2.98;;;;;;;27.70;46.16;99742.41;1773317;80;21187;-59
2022/06/07 11:55:08;;;;;;;2.80;2.60;;;;;;;27.72;46.15;99748.41;1767209;80;21553;-58
2022/06/07 11:57:40;;;;;;;3.00;2.70;;;;;;;27.74;46.12;99736.66;1780370;80;20985;-58
2022/06/07 12:00:24;;;;;;;3.20;2.65;;;;;;;27.78;46.10;99730.92;1768976;79;21081;-59
2022/06/07 12:03:07;;;;;;;4.62;2.85;;;;;;;27.81;46.09;99731.16;1773009;80;21037;-58
2022/06/07 12:05:53;;;;;;;3.65;3.30;;;;;;;27.84;46.07;99731.16;1799541;78;21111;-58
2022/06/07 12:08:43;;;;;;;3.58;2.70;;;;;;;27.85;46.01;99730.04;1821813;78;21638;-58
2022/06/07 12:11:23;;;;;;;6.25;2.60;;;;;;;27.84;46.04;99729.23;1815917;79;21085;-58
2022/06/07 12:14:34;;;;;;;2.72;2.52;;;;;;;27.84;46.02;99721.05;1773640;79;22101;-58
2022/06/07 12:17:05;;;;;;;4.40;2.90;;;;;;;27.85;46.00;99724.05;1780029;79;21020;-59
2022/06/07 12:19:35;;;;;;;2.92;2.72;;;;;;;27.83;46.03;99721.31;1780328;79;22081;-58
2022/06/07 12:22:06;;;;;;;6.47;2.80;;;;;;;27.81;46.09;99718.87;1763203;80;21584;-58